createdAt,value
2018-11-06T00:00:05.370Z,948.13
2018-11-06T00:01:05.347Z,948.11
2018-11-06T00:02:05.337Z,948.11
2018-11-06T00:03:05.325Z,948.03
2018-11-06T00:04:05.313Z,948.09
2018-11-06T00:05:05.302Z,948.1
2018-11-06T00:06:05.290Z,948.08
2018-11-06T00:07:05.279Z,948.09
2018-11-06T00:08:05.269Z,948.1
2018-11-06T00:09:05.279Z,948.09
2018-11-06T00:10:05.253Z,948.09
2018-11-06T00:11:05.237Z,948.06
2018-11-06T00:12:05.221Z,948.01
2018-11-06T00:13:05.211Z,948.02
2018-11-06T00:14:05.206Z,948
2018-11-06T00:15:05.187Z,948.06
2018-11-06T00:16:05.177Z,948.05
2018-11-06T00:17:05.166Z,947.97
2018-11-06T00:18:05.154Z,947.97
2018-11-06T00:19:05.143Z,948.01
2018-11-06T00:20:05.130Z,948.02
2018-11-06T00:21:05.118Z,947.93
2018-11-06T00:22:05.110Z,947.98
2018-11-06T00:23:05.098Z,947.93
2018-11-06T00:24:05.085Z,947.97
2018-11-06T00:25:05.074Z,947.94
2018-11-06T00:26:05.062Z,947.91
2018-11-06T00:27:05.053Z,947.96
2018-11-06T00:28:05.042Z,947.96
2018-11-06T00:29:05.030Z,947.94
2018-11-06T00:30:05.018Z,947.97
2018-11-06T00:31:05.013Z,947.91
2018-11-06T00:32:04.994Z,947.9
2018-11-06T00:33:04.984Z,947.89
2018-11-06T00:34:05.037Z,947.88
2018-11-06T00:35:04.961Z,947.85
2018-11-06T00:36:04.957Z,947.95
2018-11-06T00:37:04.938Z,947.88
2018-11-06T00:38:04.930Z,947.96
2018-11-06T00:39:04.915Z,948
2018-11-06T00:40:04.903Z,947.98
2018-11-06T00:41:04.892Z,948.01
2018-11-06T00:42:04.881Z,948.04
2018-11-06T00:43:04.873Z,947.95
2018-11-06T00:44:04.858Z,948.01
2018-11-06T00:45:04.847Z,948.01
2018-11-06T00:46:04.835Z,948.02
2018-11-06T00:47:04.824Z,948.01
2018-11-06T00:48:04.811Z,948.05
2018-11-06T00:49:04.803Z,948.05
2018-11-06T00:50:04.791Z,948.05
2018-11-06T00:51:04.778Z,948.05
2018-11-06T00:52:04.767Z,948.08
2018-11-06T00:53:04.755Z,948.11
2018-11-06T00:54:04.746Z,948.07
2018-11-06T00:55:04.733Z,948.05
2018-11-06T00:56:04.722Z,948.04
2018-11-06T00:57:04.710Z,947.98
2018-11-06T00:58:04.698Z,947.98
2018-11-06T00:59:04.688Z,947.94
2018-11-06T01:00:04.677Z,948.02
2018-11-06T01:01:04.672Z,947.94
2018-11-06T01:02:04.653Z,947.92
2018-11-06T01:03:04.642Z,947.94
2018-11-06T01:04:04.631Z,947.87
2018-11-06T01:05:04.622Z,947.87
2018-11-06T01:06:04.607Z,947.88
2018-11-06T01:07:04.598Z,947.88
2018-11-06T01:08:04.586Z,947.91
2018-11-06T01:09:04.574Z,947.88
2018-11-06T01:10:04.562Z,947.84
2018-11-06T01:11:04.551Z,947.84
2018-11-06T01:12:04.540Z,947.86
2018-11-06T01:13:04.529Z,947.85
2018-11-06T01:14:04.517Z,947.87
2018-11-06T01:15:04.506Z,947.83
2018-11-06T01:16:04.495Z,947.85
2018-11-06T01:17:04.483Z,947.84
2018-11-06T01:18:04.470Z,947.84
2018-11-06T01:19:04.459Z,947.85
2018-11-06T01:20:04.446Z,947.81
2018-11-06T01:21:04.436Z,947.84
2018-11-06T01:22:04.429Z,947.83
2018-11-06T01:23:04.414Z,947.89
2018-11-06T01:24:04.405Z,947.85
2018-11-06T01:25:04.390Z,947.78
2018-11-06T01:26:04.385Z,947.86
2018-11-06T01:27:04.366Z,947.88
2018-11-06T01:28:04.355Z,947.9
2018-11-06T01:29:04.343Z,947.88
2018-11-06T01:30:04.332Z,947.96
2018-11-06T01:31:04.320Z,947.95
2018-11-06T01:32:04.310Z,947.94
2018-11-06T01:33:04.309Z,947.9
2018-11-06T01:34:04.285Z,947.98
2018-11-06T01:35:04.342Z,947.9
2018-11-06T01:36:04.304Z,948.04
2018-11-06T01:37:04.283Z,947.98
2018-11-06T01:38:04.254Z,948
2018-11-06T01:39:04.266Z,947.89
2018-11-06T01:40:04.247Z,947.97
2018-11-06T01:41:04.241Z,947.99
2018-11-06T01:42:04.227Z,947.94
2018-11-06T01:43:04.191Z,948.02
2018-11-06T01:44:04.190Z,948.04
2018-11-06T01:45:04.167Z,948
2018-11-06T01:46:04.187Z,948.04
2018-11-06T01:47:04.177Z,947.96
2018-11-06T01:48:04.152Z,947.97
2018-11-06T01:49:04.147Z,948.02
2018-11-06T01:50:04.129Z,947.95
2018-11-06T01:51:04.116Z,947.98
2018-11-06T01:52:04.102Z,947.92
2018-11-06T01:53:04.067Z,947.91
2018-11-06T01:54:04.058Z,947.91
2018-11-06T01:55:04.062Z,947.96
2018-11-06T01:56:04.032Z,947.95
2018-11-06T01:57:04.023Z,947.84
2018-11-06T01:58:04.009Z,947.85
2018-11-06T01:59:03.999Z,947.83
2018-11-06T02:00:03.986Z,947.79
2018-11-06T02:01:03.977Z,947.9
2018-11-06T02:02:03.963Z,947.89
2018-11-06T02:03:04.043Z,947.83
2018-11-06T02:04:03.942Z,947.79
2018-11-06T02:05:03.928Z,947.82
2018-11-06T02:06:03.917Z,947.82
2018-11-06T02:07:03.970Z,947.83
2018-11-06T02:08:03.896Z,947.87
2018-11-06T02:09:03.886Z,947.81
2018-11-06T02:10:03.873Z,947.76
2018-11-06T02:11:03.861Z,947.83
2018-11-06T02:12:03.847Z,947.8
2018-11-06T02:13:03.835Z,947.84
2018-11-06T02:14:03.824Z,947.83
2018-11-06T02:15:03.813Z,947.77
2018-11-06T02:16:03.800Z,947.88
2018-11-06T02:17:03.789Z,947.85
2018-11-06T02:18:03.777Z,947.82
2018-11-06T02:19:03.767Z,947.84
2018-11-06T02:20:03.757Z,947.88
2018-11-06T02:21:03.743Z,947.9
2018-11-06T02:22:03.730Z,947.87
2018-11-06T02:23:03.719Z,947.92
2018-11-06T02:24:03.708Z,947.84
2018-11-06T02:25:03.699Z,947.9
2018-11-06T02:26:03.684Z,947.89
2018-11-06T02:27:03.674Z,947.92
2018-11-06T02:28:03.661Z,947.92
2018-11-06T02:29:03.650Z,947.94
2018-11-06T02:30:03.639Z,947.99
2018-11-06T02:31:03.630Z,947.93
2018-11-06T02:32:03.615Z,947.93
2018-11-06T02:33:03.604Z,947.91
2018-11-06T02:34:03.591Z,947.88
2018-11-06T02:35:03.587Z,947.91
2018-11-06T02:36:03.569Z,947.97
2018-11-06T02:37:03.560Z,947.95
2018-11-06T02:38:03.546Z,947.98
2018-11-06T02:39:03.533Z,948.07
2018-11-06T02:40:03.521Z,948.08
2018-11-06T02:41:03.515Z,947.98
2018-11-06T02:42:03.498Z,948.01
2018-11-06T02:43:03.487Z,948.02
2018-11-06T02:44:03.475Z,948.05
2018-11-06T02:45:03.464Z,947.98
2018-11-06T02:46:03.453Z,947.95
2018-11-06T02:47:03.441Z,947.89
2018-11-06T02:48:03.431Z,947.96
2018-11-06T02:49:03.418Z,948.01
2018-11-06T02:50:03.407Z,948.02
2018-11-06T02:51:03.394Z,948
2018-11-06T02:52:03.383Z,948
2018-11-06T02:53:03.372Z,947.99
2018-11-06T02:54:03.360Z,948
2018-11-06T02:55:03.348Z,947.95
2018-11-06T02:56:03.414Z,947.96
2018-11-06T02:57:03.325Z,947.85
2018-11-06T02:58:03.313Z,947.88
2018-11-06T02:59:03.303Z,947.94
2018-11-06T03:00:03.290Z,947.93
2018-11-06T03:01:03.278Z,947.93
2018-11-06T03:02:03.265Z,947.95
2018-11-06T03:03:03.256Z,947.95
2018-11-06T03:04:03.243Z,947.96
2018-11-06T03:05:03.231Z,947.99
2018-11-06T03:06:03.223Z,948.04
2018-11-06T03:07:03.209Z,948.01
2018-11-06T03:08:03.197Z,948.03
2018-11-06T03:09:03.185Z,947.97
2018-11-06T03:10:03.225Z,947.96
2018-11-06T03:11:03.167Z,947.99
2018-11-06T03:12:03.150Z,947.95
2018-11-06T03:13:03.140Z,947.92
2018-11-06T03:14:03.126Z,947.94
2018-11-06T03:15:03.115Z,947.95
2018-11-06T03:16:03.104Z,947.96
2018-11-06T03:17:03.210Z,948.01
2018-11-06T03:18:03.080Z,947.99
2018-11-06T03:19:03.069Z,948.01
2018-11-06T03:20:03.062Z,948.02
2018-11-06T03:21:03.046Z,948.04
2018-11-06T03:22:03.034Z,947.99
2018-11-06T03:23:03.022Z,948.05
2018-11-06T03:24:03.008Z,948.01
2018-11-06T03:25:02.998Z,948.02
2018-11-06T03:26:02.987Z,948.08
2018-11-06T03:27:03.074Z,948.04
2018-11-06T03:28:02.962Z,948.12
2018-11-06T03:29:02.951Z,948.12
2018-11-06T03:30:02.940Z,948.12
2018-11-06T03:31:02.929Z,948.11
2018-11-06T03:32:02.916Z,948.14
2018-11-06T03:33:02.904Z,948.18
2018-11-06T03:34:02.893Z,948.16
2018-11-06T03:35:02.884Z,948.15
2018-11-06T03:36:02.870Z,948.13
2018-11-06T03:37:02.859Z,948.18
2018-11-06T03:38:02.845Z,948.19
2018-11-06T03:39:02.834Z,948.19
2018-11-06T03:40:02.821Z,948.2
2018-11-06T03:41:02.812Z,948.16
2018-11-06T03:42:02.799Z,948.23
2018-11-06T03:43:02.803Z,948.21
2018-11-06T03:44:02.774Z,948.24
2018-11-06T03:45:02.765Z,948.18
2018-11-06T03:46:02.753Z,948.17
2018-11-06T03:47:02.740Z,948.16
2018-11-06T03:48:02.728Z,948.23
2018-11-06T03:49:02.720Z,948.18
2018-11-06T03:50:02.719Z,948.18
2018-11-06T03:51:02.693Z,948.21
2018-11-06T03:52:02.682Z,948.2
2018-11-06T03:53:02.678Z,948.23
2018-11-06T03:54:02.661Z,948.19
2018-11-06T03:55:02.648Z,948.2
2018-11-06T03:56:02.636Z,948.18
2018-11-06T03:57:02.623Z,948.22
2018-11-06T03:58:02.615Z,948.19
2018-11-06T03:59:02.600Z,948.23
2018-11-06T04:00:02.590Z,948.26
2018-11-06T04:01:02.576Z,948.29
2018-11-06T04:02:02.564Z,948.26
2018-11-06T04:03:02.552Z,948.27
2018-11-06T04:04:02.541Z,948.29
2018-11-06T04:05:02.530Z,948.21
2018-11-06T04:06:02.519Z,948.26
2018-11-06T04:07:02.506Z,948.3
2018-11-06T04:08:02.496Z,948.3
2018-11-06T04:09:02.484Z,948.28
2018-11-06T04:10:02.476Z,948.34
2018-11-06T04:11:02.460Z,948.28
2018-11-06T04:12:02.448Z,948.29
2018-11-06T04:13:02.436Z,948.26
2018-11-06T04:14:02.425Z,948.27
2018-11-06T04:15:02.413Z,948.3
2018-11-06T04:16:02.400Z,948.3
2018-11-06T04:17:02.388Z,948.33
2018-11-06T04:18:02.377Z,948.36
2018-11-06T04:19:02.368Z,948.3
2018-11-06T04:20:02.352Z,948.3
2018-11-06T04:21:02.342Z,948.3
2018-11-06T04:22:02.330Z,948.3
2018-11-06T04:23:02.320Z,948.25
2018-11-06T04:24:02.308Z,948.28
2018-11-06T04:25:02.296Z,948.27
2018-11-06T04:26:02.283Z,948.29
2018-11-06T04:27:02.276Z,948.26
2018-11-06T04:28:02.260Z,948.27
2018-11-06T04:29:02.248Z,948.24
2018-11-06T04:30:02.241Z,948.18
2018-11-06T04:31:02.227Z,948.23
2018-11-06T04:32:02.214Z,948.24
2018-11-06T04:33:02.203Z,948.21
2018-11-06T04:34:02.190Z,948.17
2018-11-06T04:35:02.183Z,948.22
2018-11-06T04:36:02.169Z,948.18
2018-11-06T04:37:02.154Z,948.17
2018-11-06T04:38:02.142Z,948.29
2018-11-06T04:39:02.130Z,948.25
2018-11-06T04:40:02.127Z,948.21
2018-11-06T04:41:02.106Z,948.23
2018-11-06T04:42:02.096Z,948.2
2018-11-06T04:43:02.083Z,948.22
2018-11-06T04:44:02.070Z,948.24
2018-11-06T04:45:02.061Z,948.22
2018-11-06T04:46:02.048Z,948.22
2018-11-06T04:47:02.040Z,948.26
2018-11-06T04:48:02.023Z,948.23
2018-11-06T04:49:02.012Z,948.26
2018-11-06T04:50:02.002Z,948.3
2018-11-06T04:51:01.989Z,948.29
2018-11-06T04:52:01.976Z,948.27
2018-11-06T04:53:01.966Z,948.26
2018-11-06T04:54:01.954Z,948.27
2018-11-06T04:55:01.940Z,948.31
2018-11-06T04:56:01.928Z,948.32
2018-11-06T04:57:01.919Z,948.32
2018-11-06T04:58:01.904Z,948.34
2018-11-06T04:59:01.892Z,948.28
2018-11-06T05:00:01.881Z,948.28
2018-11-06T05:01:01.870Z,948.36
2018-11-06T05:02:01.906Z,948.37
2018-11-06T05:03:01.845Z,948.39
2018-11-06T05:04:01.835Z,948.37
2018-11-06T05:05:01.822Z,948.4
2018-11-06T05:06:01.808Z,948.37
2018-11-06T05:07:01.854Z,948.44
2018-11-06T05:08:01.786Z,948.44
2018-11-06T05:09:01.773Z,948.43
2018-11-06T05:10:01.763Z,948.39
2018-11-06T05:11:01.750Z,948.44
2018-11-06T05:12:01.737Z,948.37
2018-11-06T05:13:01.727Z,948.4
2018-11-06T05:14:01.749Z,948.42
2018-11-06T05:15:01.715Z,948.4
2018-11-06T05:16:01.691Z,948.41
2018-11-06T05:17:01.677Z,948.41
2018-11-06T05:18:01.665Z,948.37
2018-11-06T05:19:01.653Z,948.37
2018-11-06T05:20:01.642Z,948.42
2018-11-06T05:21:01.633Z,948.36
2018-11-06T05:22:01.617Z,948.36
2018-11-06T05:23:01.607Z,948.33
2018-11-06T05:24:01.593Z,948.36
2018-11-06T05:25:01.580Z,948.33
2018-11-06T05:26:01.569Z,948.41
2018-11-06T05:27:01.575Z,948.39
2018-11-06T05:28:01.544Z,948.37
2018-11-06T05:29:01.533Z,948.36
2018-11-06T05:30:01.521Z,948.37
2018-11-06T05:31:01.513Z,948.35
2018-11-06T05:32:01.497Z,948.38
2018-11-06T05:33:01.637Z,948.33
2018-11-06T05:34:01.473Z,948.38
2018-11-06T05:35:01.578Z,948.4
2018-11-06T05:36:01.449Z,948.36
2018-11-06T05:37:01.437Z,948.4
2018-11-06T05:38:01.424Z,948.37
2018-11-06T05:39:01.553Z,948.37
2018-11-06T05:40:01.401Z,948.4
2018-11-06T05:41:01.392Z,948.44
2018-11-06T05:42:01.376Z,948.47
2018-11-06T05:43:01.363Z,948.42
2018-11-06T05:44:01.384Z,948.45
2018-11-06T05:45:01.345Z,948.46
2018-11-06T05:46:01.329Z,948.51
2018-11-06T05:47:01.317Z,948.48
2018-11-06T05:48:01.303Z,948.48
2018-11-06T05:49:01.293Z,948.46
2018-11-06T05:50:01.278Z,948.48
2018-11-06T05:51:01.267Z,948.42
2018-11-06T05:52:01.254Z,948.43
2018-11-06T05:53:01.248Z,948.44
2018-11-06T05:54:01.230Z,948.43
2018-11-06T05:55:01.219Z,948.43
2018-11-06T05:56:01.207Z,948.35
2018-11-06T05:57:01.195Z,948.38
2018-11-06T05:58:01.183Z,948.37
2018-11-06T05:59:01.171Z,948.36
2018-11-06T06:00:01.162Z,948.4
2018-11-06T06:01:01.149Z,948.42
2018-11-06T06:02:01.135Z,948.35
2018-11-06T06:03:01.122Z,948.42
2018-11-06T06:04:01.110Z,948.38
2018-11-06T06:05:01.099Z,948.4
2018-11-06T06:06:01.085Z,948.41
2018-11-06T06:07:01.074Z,948.36
2018-11-06T06:08:01.059Z,948.39
2018-11-06T06:09:01.050Z,948.38
2018-11-06T06:10:01.036Z,948.44
2018-11-06T06:11:01.081Z,948.43
2018-11-06T06:12:01.011Z,948.4
2018-11-06T06:13:01.003Z,948.43
2018-11-06T06:14:00.988Z,948.41
2018-11-06T06:15:00.976Z,948.51
2018-11-06T06:16:00.966Z,948.55
2018-11-06T06:17:00.955Z,948.55
2018-11-06T06:18:00.939Z,948.61
2018-11-06T06:19:00.927Z,948.59
2018-11-06T06:20:00.914Z,948.6
2018-11-06T06:21:00.902Z,948.6
2018-11-06T06:22:00.890Z,948.61
2018-11-06T06:23:00.878Z,948.65
2018-11-06T06:24:00.865Z,948.7
2018-11-06T06:25:00.853Z,948.67
2018-11-06T06:26:00.846Z,948.72
2018-11-06T06:27:00.829Z,948.67
2018-11-06T06:28:00.819Z,948.67
2018-11-06T06:29:00.805Z,948.7
2018-11-06T06:30:00.792Z,948.69
2018-11-06T06:31:00.781Z,948.67
2018-11-06T06:32:00.768Z,948.67
2018-11-06T06:33:00.761Z,948.72
2018-11-06T06:34:00.743Z,948.72
2018-11-06T06:35:00.781Z,948.79
2018-11-06T06:36:00.720Z,948.74
2018-11-06T06:37:00.709Z,948.75
2018-11-06T06:38:00.694Z,948.72
2018-11-06T06:39:00.682Z,948.72
2018-11-06T06:40:00.770Z,948.71
2018-11-06T06:41:00.802Z,948.67
2018-11-06T06:42:00.647Z,948.7
2018-11-06T06:43:00.633Z,948.69
2018-11-06T06:44:00.622Z,948.64
2018-11-06T06:45:00.609Z,948.68
2018-11-06T06:46:00.597Z,948.71
2018-11-06T06:47:00.586Z,948.71
2018-11-06T06:48:00.573Z,948.69
2018-11-06T06:49:00.561Z,948.65
2018-11-06T06:50:00.548Z,948.64
2018-11-06T06:51:00.536Z,948.71
2018-11-06T06:52:00.526Z,948.72
2018-11-06T06:53:00.511Z,948.71
2018-11-06T06:54:00.633Z,948.74
2018-11-06T06:55:00.571Z,948.71
2018-11-06T06:56:00.475Z,948.74
2018-11-06T06:57:00.462Z,948.73
2018-11-06T06:58:00.450Z,948.67
2018-11-06T06:59:00.439Z,948.74
2018-11-06T07:00:00.427Z,948.8
2018-11-06T07:01:00.417Z,948.73
2018-11-06T07:02:00.404Z,948.77
2018-11-06T07:03:00.391Z,948.8
2018-11-06T07:04:00.379Z,948.86
2018-11-06T07:05:00.366Z,948.88
2018-11-06T07:06:00.355Z,948.86
2018-11-06T07:07:00.341Z,948.92
2018-11-06T07:08:00.332Z,948.94
2018-11-06T07:09:00.318Z,948.96
2018-11-06T07:10:00.310Z,948.91
2018-11-06T07:11:00.294Z,948.89
2018-11-06T07:12:00.282Z,948.99
2018-11-06T07:13:00.416Z,948.97
2018-11-06T07:14:00.259Z,948.96
2018-11-06T07:15:00.246Z,948.99
2018-11-06T07:16:00.236Z,948.99
2018-11-06T07:17:00.222Z,949
2018-11-06T07:18:00.210Z,949.07
2018-11-06T07:19:00.199Z,949.04
2018-11-06T07:20:00.187Z,949.04
2018-11-06T07:21:00.175Z,949.02
2018-11-06T07:22:00.162Z,949.07
2018-11-06T07:23:00.150Z,949.08
2018-11-06T07:24:00.143Z,949.06
2018-11-06T07:25:00.127Z,949.04
2018-11-06T07:26:00.114Z,949.06
2018-11-06T07:27:00.103Z,949.05
2018-11-06T07:28:00.092Z,949.06
2018-11-06T07:29:00.244Z,949.02
2018-11-06T07:30:00.067Z,949.05
2018-11-06T07:31:00.061Z,949.03
2018-11-06T07:32:00.046Z,949.05
2018-11-06T07:33:00.034Z,949.03
2018-11-06T07:34:00.027Z,949.08
2018-11-06T07:35:00.268Z,949.1
2018-11-06T07:35:59.997Z,949.04
2018-11-06T07:36:59.987Z,949.03
2018-11-06T07:37:59.984Z,949.07
2018-11-06T07:38:59.964Z,949.06
2018-11-06T07:39:59.951Z,949.06
2018-11-06T07:41:00.027Z,949.04
2018-11-06T07:41:59.932Z,949.02
2018-11-06T07:42:59.915Z,949.05
2018-11-06T07:43:59.903Z,949.03
2018-11-06T07:44:59.895Z,949.02
2018-11-06T07:45:59.882Z,949.04
2018-11-06T07:46:59.871Z,949.02
2018-11-06T07:47:59.857Z,948.97
2018-11-06T07:48:59.846Z,949
2018-11-06T07:49:59.894Z,949.04
2018-11-06T07:50:59.823Z,948.98
2018-11-06T07:51:59.812Z,948.99
2018-11-06T07:52:59.800Z,948.99
2018-11-06T07:53:59.788Z,949.03
2018-11-06T07:54:59.777Z,949.04
2018-11-06T07:55:59.811Z,949.02
2018-11-06T07:56:59.754Z,949
2018-11-06T07:57:59.743Z,949.07
2018-11-06T07:58:59.732Z,949.11
2018-11-06T07:59:59.721Z,949.07
2018-11-06T08:00:59.710Z,949.05
2018-11-06T08:01:59.697Z,949.13
2018-11-06T08:02:59.686Z,949.13
2018-11-06T08:03:59.713Z,949.2
2018-11-06T08:04:59.664Z,949.18
2018-11-06T08:05:59.652Z,949.2
2018-11-06T08:06:59.640Z,949.18
2018-11-06T08:07:59.630Z,949.19
2018-11-06T08:08:59.620Z,949.19
2018-11-06T08:09:59.607Z,949.17
2018-11-06T08:10:59.597Z,949.18
2018-11-06T08:11:59.587Z,949.16
2018-11-06T08:12:59.573Z,949.19
2018-11-06T08:13:59.563Z,949.12
2018-11-06T08:14:59.604Z,949.13
2018-11-06T08:15:59.544Z,949.22
2018-11-06T08:16:59.530Z,949.16
2018-11-06T08:17:59.533Z,949.2
2018-11-06T08:18:59.508Z,949.19
2018-11-06T08:19:59.496Z,949.21
2018-11-06T08:20:59.493Z,949.25
2018-11-06T08:21:59.474Z,949.23
2018-11-06T08:22:59.465Z,949.22
2018-11-06T08:23:59.518Z,949.25
2018-11-06T08:24:59.442Z,949.24
2018-11-06T08:25:59.431Z,949.31
2018-11-06T08:26:59.421Z,949.33
2018-11-06T08:27:59.412Z,949.29
2018-11-06T08:28:59.397Z,949.32
2018-11-06T08:29:59.387Z,949.26
2018-11-06T08:30:59.752Z,949.27
2018-11-06T08:32:00.197Z,949.27
2018-11-06T08:32:59.355Z,949.3
2018-11-06T08:33:59.343Z,949.35
2018-11-06T08:34:59.394Z,949.33
2018-11-06T08:35:59.323Z,949.31
2018-11-06T08:36:59.386Z,949.34
2018-11-06T08:37:59.300Z,949.34
2018-11-06T08:38:59.290Z,949.27
2018-11-06T08:39:59.281Z,949.3
2018-11-06T08:40:59.269Z,949.24
2018-11-06T08:41:59.257Z,949.28
2018-11-06T08:42:59.249Z,949.3
2018-11-06T08:43:59.237Z,949.27
2018-11-06T08:44:59.229Z,949.26
2018-11-06T08:45:59.215Z,949.28
2018-11-06T08:46:59.208Z,949.26
2018-11-06T08:47:59.249Z,949.25
2018-11-06T08:48:59.184Z,949.22
2018-11-06T08:49:59.174Z,949.23
2018-11-06T08:50:59.163Z,949.22
2018-11-06T08:51:59.155Z,949.27
2018-11-06T08:52:59.145Z,949.23
2018-11-06T08:53:59.133Z,949.23
2018-11-06T08:54:59.124Z,949.2
2018-11-06T08:55:59.112Z,949.2
2018-11-06T08:56:59.102Z,949.18
2018-11-06T08:57:59.091Z,949.16
2018-11-06T08:58:59.081Z,949.19
2018-11-06T08:59:59.070Z,949.22
2018-11-06T09:00:59.061Z,949.13
2018-11-06T09:01:59.051Z,949.18
2018-11-06T09:02:59.041Z,949.13
2018-11-06T09:03:59.031Z,949.17
2018-11-06T09:04:59.021Z,949.14
2018-11-06T09:05:59.012Z,949.13
2018-11-06T09:06:59.001Z,949.18
2018-11-06T09:07:58.992Z,949.13
2018-11-06T09:08:59.098Z,949.2
2018-11-06T09:09:58.975Z,949.2
2018-11-06T09:10:58.961Z,949.2
2018-11-06T09:11:58.954Z,949.21
2018-11-06T09:12:58.942Z,949.21
2018-11-06T09:13:58.937Z,949.25
2018-11-06T09:14:58.924Z,949.26
2018-11-06T09:15:58.913Z,949.24
2018-11-06T09:16:58.956Z,949.19
2018-11-06T09:17:58.894Z,949.2
2018-11-06T09:18:58.884Z,949.22
2018-11-06T09:19:58.875Z,949.22
2018-11-06T09:20:58.867Z,949.2
2018-11-06T09:21:58.855Z,949.19
2018-11-06T09:22:58.853Z,949.22
2018-11-06T09:23:58.837Z,949.2
2018-11-06T09:24:58.830Z,949.19
2018-11-06T09:25:58.817Z,949.2
2018-11-06T09:26:58.809Z,949.18
2018-11-06T09:27:58.799Z,949.23
2018-11-06T09:28:58.789Z,949.21
2018-11-06T09:29:58.780Z,949.21
2018-11-06T09:30:58.860Z,949.22
2018-11-06T09:31:58.763Z,949.23
2018-11-06T09:32:58.752Z,949.17
2018-11-06T09:33:58.745Z,949.21
2018-11-06T09:34:58.781Z,949.22
2018-11-06T09:35:58.732Z,949.23
2018-11-06T09:56:07.063Z,949.21
2018-11-06T09:57:07.055Z,949.2
2018-11-06T09:58:07.045Z,949.21
2018-11-06T09:59:07.038Z,949.21
2018-11-06T10:00:07.092Z,949.19
2018-11-06T10:01:07.020Z,949.16
2018-11-06T10:02:07.012Z,949.17
2018-11-06T10:03:07.004Z,949.2
2018-11-06T10:04:06.994Z,949.22
2018-11-06T10:05:06.987Z,949.17
2018-11-06T10:06:07.046Z,949.2
2018-11-06T10:07:07.297Z,949.21
2018-11-06T10:08:06.960Z,949.2
2018-11-06T10:09:06.975Z,949.13
2018-11-06T10:10:06.945Z,949.08
2018-11-06T10:11:06.941Z,949.07
2018-11-06T10:12:06.928Z,949.08
2018-11-06T10:13:06.920Z,949.08
2018-11-06T10:14:06.912Z,949.05
2018-11-06T10:15:06.907Z,949.05
2018-11-06T10:16:06.896Z,949.03
2018-11-06T10:17:06.888Z,949.04
2018-11-06T10:18:06.882Z,949.04
2018-11-06T10:19:06.872Z,948.97
2018-11-06T10:20:06.865Z,949.03
2018-11-06T10:21:06.924Z,948.99
2018-11-06T10:22:06.849Z,948.99
2018-11-06T10:23:06.840Z,948.96
2018-11-06T10:24:06.833Z,948.95
2018-11-06T10:25:06.826Z,948.93
2018-11-06T10:26:06.818Z,948.95
2018-11-06T10:27:06.810Z,948.92
2018-11-06T10:28:06.803Z,948.89
2018-11-06T10:29:06.795Z,948.9
2018-11-06T10:30:06.787Z,948.87
2018-11-06T10:31:06.780Z,948.85
2018-11-06T10:32:06.777Z,948.91
2018-11-06T10:33:06.765Z,948.89
2018-11-06T10:34:06.757Z,948.87
2018-11-06T10:35:06.750Z,948.9
2018-11-06T10:36:06.744Z,948.91
2018-11-06T10:37:06.735Z,948.91
2018-11-06T10:38:06.741Z,948.87
2018-11-06T10:39:06.721Z,948.87
2018-11-06T10:40:06.714Z,948.86
2018-11-06T10:41:06.707Z,948.83
2018-11-06T10:42:06.700Z,948.81
2018-11-06T10:43:06.693Z,948.8
2018-11-06T10:44:06.687Z,948.8
2018-11-06T10:45:06.680Z,948.82
2018-11-06T10:46:06.675Z,948.84
2018-11-06T10:47:06.665Z,948.81
2018-11-06T10:48:06.658Z,948.83
2018-11-06T10:49:06.651Z,948.82
2018-11-06T10:50:06.644Z,948.83
2018-11-06T10:51:06.638Z,948.81
2018-11-06T10:52:06.630Z,948.81
2018-11-06T10:53:06.624Z,948.78
2018-11-06T10:54:06.617Z,948.74
2018-11-06T10:55:06.663Z,948.76
2018-11-06T10:56:06.603Z,948.77
2018-11-06T10:57:06.596Z,948.76
2018-11-06T10:58:06.624Z,948.76
2018-11-06T10:59:06.583Z,948.77
2018-11-06T11:00:06.580Z,948.76
2018-11-06T11:01:06.569Z,948.79
2018-11-06T11:02:06.565Z,948.77
2018-11-06T11:03:06.558Z,948.82
2018-11-06T11:04:06.609Z,948.77
2018-11-06T11:05:06.546Z,948.77
2018-11-06T11:06:06.539Z,948.79
2018-11-06T11:07:06.531Z,948.76
2018-11-06T11:08:06.525Z,948.77
2018-11-06T11:09:06.519Z,948.8
2018-11-06T11:10:06.512Z,948.8
2018-11-06T11:11:06.507Z,948.82
2018-11-06T11:12:06.501Z,948.78
2018-11-06T11:13:06.499Z,948.79
2018-11-06T11:14:06.487Z,948.74
2018-11-06T11:15:06.483Z,948.78
2018-11-06T11:16:06.476Z,948.77
2018-11-06T11:17:06.469Z,948.74
2018-11-06T11:18:06.464Z,948.7
2018-11-06T11:19:06.457Z,948.77
2018-11-06T11:20:06.470Z,948.77
2018-11-06T11:21:06.446Z,948.77
2018-11-06T11:22:06.439Z,948.77
2018-11-06T11:23:06.436Z,948.77
2018-11-06T11:24:06.426Z,948.77
2018-11-06T11:25:06.423Z,948.75
2018-11-06T11:26:06.415Z,948.77
2018-11-06T11:27:06.409Z,948.78
2018-11-06T11:28:06.404Z,948.77
2018-11-06T11:29:06.398Z,948.76
2018-11-06T11:30:06.390Z,948.76
2018-11-06T11:31:06.389Z,948.76
2018-11-06T11:32:06.377Z,948.76
2018-11-06T11:33:06.377Z,948.73
2018-11-06T11:34:06.375Z,948.79
2018-11-06T11:35:06.361Z,948.8
2018-11-06T11:36:06.357Z,948.79
2018-11-06T11:37:06.348Z,948.79
2018-11-06T11:38:06.344Z,948.82
2018-11-06T11:39:06.337Z,948.8
2018-11-06T11:40:06.331Z,948.79
2018-11-06T11:41:06.325Z,948.8
2018-11-06T11:42:06.319Z,948.81
2018-11-06T11:43:06.314Z,948.75
2018-11-06T11:44:06.307Z,948.74
2018-11-06T11:45:06.302Z,948.76
2018-11-06T11:46:06.299Z,948.74
2018-11-06T11:47:06.289Z,948.72
2018-11-06T11:48:06.285Z,948.7
2018-11-06T11:49:06.282Z,948.68
2018-11-06T11:50:06.272Z,948.7
2018-11-06T11:51:06.267Z,948.72
2018-11-06T11:52:06.260Z,948.66
2018-11-06T11:53:06.255Z,948.72
2018-11-06T11:54:06.249Z,948.71
2018-11-06T11:55:06.243Z,948.69
2018-11-06T11:56:06.237Z,948.66
2018-11-06T11:57:06.230Z,948.7
2018-11-06T11:58:06.225Z,948.68
2018-11-06T11:59:06.221Z,948.64
2018-11-06T12:00:06.284Z,948.67
2018-11-06T12:01:06.217Z,948.67
2018-11-06T12:02:06.269Z,948.66
2018-11-06T12:03:06.197Z,948.56
2018-11-06T12:04:06.192Z,948.61
2018-11-06T12:05:06.186Z,948.62
2018-11-06T12:06:06.180Z,948.61
2018-11-06T12:07:06.174Z,948.58
2018-11-06T12:08:06.168Z,948.54
2018-11-06T12:09:06.165Z,948.53
2018-11-06T12:10:06.156Z,948.56
2018-11-06T12:11:06.153Z,948.56
2018-11-06T12:12:06.144Z,948.56
2018-11-06T12:13:06.142Z,948.57
2018-11-06T12:14:06.134Z,948.54
2018-11-06T12:15:06.131Z,948.52
2018-11-06T12:16:06.122Z,948.54
2018-11-06T12:17:06.117Z,948.52
2018-11-06T12:18:06.138Z,948.53
2018-11-06T12:19:06.105Z,948.52
2018-11-06T12:20:06.099Z,948.52
2018-11-06T12:21:06.095Z,948.51
2018-11-06T12:22:06.087Z,948.48
2018-11-06T12:23:06.081Z,948.5
2018-11-06T12:24:06.132Z,948.45
2018-11-06T12:25:06.347Z,948.49
2018-11-06T12:26:06.066Z,948.41
2018-11-06T12:27:06.060Z,948.46
2018-11-06T12:28:06.056Z,948.46
2018-11-06T12:29:06.048Z,948.42
2018-11-06T12:30:06.044Z,948.41
2018-11-06T12:31:06.035Z,948.41
2018-11-06T12:32:06.031Z,948.41
2018-11-06T12:33:06.025Z,948.38
2018-11-06T12:34:06.020Z,948.39
2018-11-06T12:35:06.013Z,948.38
2018-11-06T12:36:06.008Z,948.35
2018-11-06T12:37:06.101Z,948.33
2018-11-06T12:38:05.995Z,948.36
2018-11-06T12:39:05.990Z,948.34
2018-11-06T12:40:05.984Z,948.31
2018-11-06T12:41:05.978Z,948.26
2018-11-06T12:42:05.973Z,948.22
2018-11-06T12:43:06.175Z,948.21
2018-11-06T12:44:05.963Z,948.22
2018-11-06T12:45:05.957Z,948.15
2018-11-06T12:46:05.950Z,948.19
2018-11-06T12:47:05.945Z,948.19
2018-11-06T12:48:05.940Z,948.16
2018-11-06T12:49:05.933Z,948.15
2018-11-06T12:50:05.952Z,948.14